KCCB/CCB METAR and TAF weather

Enter ICAO airport designator
Station Type Date Time Source
KCCB METAR 2024/07/23 17:35 UTC NOAA

KCCB 231735Z AUTO 23007KT 10SM CLR 29/15 A2995 RMK AO2


Station Type Date Time Source
KCCB Decoded METAR 2024/07/23 17:35 UTC NOAA

Station name not available
Jul 23, 2024 - 01:35 PM EDT / 2024.07.23 1735 UTC
Wind: from the SW (230 degrees) at 8 MPH (7 KT):0
Visibility: 10 mile(s):0
Sky conditions: clear
Temperature: 84 F (29 C)
Dew Point: 59 F (15 C)
Relative Humidity: 42%
Pressure (altimeter): 29.95 in. Hg (1014 hPa)
ob: KCCB 231735Z AUTO 23007KT 10SM CLR 29/15 A2995 RMK AO2
cycle: 17

Station Type Date Time Source
KCCB TAF UTC NOAA

Error!

Example: see airport list